Time;durP1;ratioP1;P1;durP2;ratioP2;P2;SDS_P1;SDS_P2;PMS_P1;PMS_P2;Temp;Humidity;BMP_temperature;BMP_pressure;BME280_temperature;BME280_humidity;BME280_pressure;Samples;Min_cycle;Max_cycle;Signal;HPM_P1;HPM_P2
2021/03/12 00:02:07;;;;;;;16.40;4.43;;;7.10;99.90;;;;;;5005824;28;20266;-77
2021/03/12 00:04:52;;;;;;;13.10;4.20;;;7.10;99.90;;;;;;5011520;28;20207;-81
2021/03/12 00:07:41;;;;;;;15.37;4.03;;;7.10;99.90;;;;;;5000685;28;20224;-78
2021/03/12 00:10:28;;;;;;;11.73;4.03;;;7.00;99.90;;;;;;5006513;28;20719;-78
2021/03/12 00:13:13;;;;;;;14.97;4.27;;;7.10;99.90;;;;;;5012667;28;20208;-78
2021/03/12 00:15:58;;;;;;;11.90;3.60;;;7.10;99.90;;;;;;5013070;28;20231;-78
2021/03/12 00:18:45;;;;;;;11.20;4.00;;;7.00;99.90;;;;;;5012371;28;20617;-78
2021/03/12 00:21:29;;;;;;;10.07;3.80;;;7.10;99.90;;;;;;5006296;28;20208;-79
2021/03/12 00:24:15;;;;;;;14.80;3.93;;;7.10;99.90;;;;;;5012502;28;20324;-78
2021/03/12 00:27:00;;;;;;;12.23;3.70;;;7.10;99.90;;;;;;5012786;28;20773;-77
2021/03/12 00:29:45;;;;;;;15.30;4.20;;;7.10;99.90;;;;;;5003430;28;20704;-77
2021/03/12 00:32:30;;;;;;;15.10;3.67;;;7.10;99.90;;;;;;5013405;28;20203;-79
2021/03/12 00:35:15;;;;;;;15.63;3.50;;;7.20;99.90;;;;;;5013819;28;20284;-79
2021/03/12 00:38:00;;;;;;;9.60;3.63;;;7.20;99.90;;;;;;5021543;28;20227;-76
2021/03/12 00:40:48;;;;;;;14.67;3.47;;;7.20;99.90;;;;;;5019787;28;20286;-78
2021/03/12 00:43:34;;;;;;;9.57;3.20;;;7.20;99.90;;;;;;5009071;28;20247;-78
2021/03/12 00:46:19;;;;;;;11.83;2.90;;;7.20;99.90;;;;;;5011846;28;20337;-78
2021/03/12 00:49:04;;;;;;;6.07;3.33;;;7.30;99.90;;;;;;5011515;28;20215;-77
2021/03/12 00:51:49;;;;;;;10.77;2.93;;;7.30;99.90;;;;;;5002762;28;20275;-77
2021/03/12 00:54:34;;;;;;;17.23;3.90;;;7.30;99.90;;;;;;5011928;28;20216;-79
2021/03/12 00:57:20;;;;;;;8.13;3.27;;;7.30;99.90;;;;;;5014002;28;20731;-78
2021/03/12 01:00:07;;;;;;;9.27;3.57;;;7.30;99.90;;;;;;5009536;28;20196;-79
2021/03/12 01:02:52;;;;;;;13.23;3.43;;;7.40;99.90;;;;;;5014429;28;20216;-79
2021/03/12 01:05:38;;;;;;;7.80;2.90;;;7.40;99.90;;;;;;5011437;28;20215;-77
2021/03/12 01:08:23;;;;;;;13.33;3.60;;;7.40;99.90;;;;;;4998549;28;20282;-78
2021/03/12 01:11:07;;;;;;;10.17;2.87;;;7.40;99.90;;;;;;5003708;28;20275;-77
2021/03/12 01:13:53;;;;;;;7.67;3.73;;;7.40;99.90;;;;;;5012850;28;20271;-78
2021/03/12 01:16:37;;;;;;;7.47;2.87;;;7.40;99.90;;;;;;5011392;28;20236;-78
2021/03/12 01:19:22;;;;;;;13.87;4.23;;;7.40;99.90;;;;;;5012499;28;20642;-78
2021/03/12 01:22:07;;;;;;;12.00;3.70;;;7.40;99.90;;;;;;5015356;28;20595;-78
2021/03/12 01:24:52;;;;;;;11.83;3.67;;;7.40;99.90;;;;;;5016072;28;20692;-78
2021/03/12 01:27:38;;;;;;;8.77;3.17;;;7.40;99.90;;;;;;5013459;28;20640;-78
2021/03/12 01:30:28;;;;;;;11.53;3.60;;;7.40;99.90;;;;;;5009951;28;20283;-78
2021/03/12 01:33:13;;;;;;;13.80;4.20;;;7.40;99.90;;;;;;5006518;28;20242;-77
2021/03/12 01:35:57;;;;;;;12.33;3.93;;;7.40;99.90;;;;;;5015057;28;20224;-77
2021/03/12 01:38:42;;;;;;;10.47;4.20;;;7.40;99.90;;;;;;5013042;28;20692;-76
2021/03/12 01:41:27;;;;;;;14.57;4.20;;;7.30;99.90;;;;;;5004520;28;20239;-78
2021/03/12 01:44:12;;;;;;;13.37;4.80;;;7.30;99.90;;;;;;5021184;28;20716;-76
2021/03/12 01:46:57;;;;;;;11.70;3.90;;;7.30;99.90;;;;;;5018200;28;20240;-78
2021/03/12 01:49:42;;;;;;;13.30;4.40;;;7.30;99.90;;;;;;5014890;28;20251;-78
2021/03/12 01:52:27;;;;;;;13.47;3.90;;;7.30;99.90;;;;;;5012721;28;20795;-78
2021/03/12 01:55:16;;;;;;;14.47;4.30;;;7.20;99.90;;;;;;5017841;28;20252;-78
2021/03/12 01:58:01;;;;;;;16.70;4.07;;;7.20;99.90;;;;;;5013435;28;20355;-79
2021/03/12 02:00:46;;;;;;;12.33;3.93;;;7.20;99.90;;;;;;5017283;28;20212;-77
2021/03/12 02:03:34;;;;;;;12.63;3.70;;;7.20;99.90;;;;;;5013825;28;20259;-79
2021/03/12 02:06:19;;;;;;;14.67;4.30;;;7.20;99.90;;;;;;5005655;28;20278;-78
2021/03/12 02:09:05;;;;;;;15.10;4.07;;;7.10;99.90;;;;;;5014484;28;20335;-79
2021/03/12 02:11:58;;;;;;;14.00;3.80;;;7.10;99.90;;;;;;5006327;28;20239;-78
2021/03/12 02:14:48;;;;;;;11.50;3.67;;;7.10;99.90;;;;;;5015373;28;20715;-79
2021/03/12 02:17:40;;;;;;;14.50;4.00;;;7.10;99.90;;;;;;5013297;28;20226;-78
2021/03/12 02:20:33;;;;;;;12.00;3.83;;;7.10;99.90;;;;;;5014252;28;20211;-77
2021/03/12 02:23:34;;;;;;;10.37;3.57;;;7.10;99.90;;;;;;5004038;28;20247;-78
2021/03/12 02:26:28;;;;;;;16.97;4.00;;;7.00;99.90;;;;;;5010324;28;20224;-75
2021/03/12 02:29:18;;;;;;;13.20;2.93;;;7.10;99.90;;;;;;5035756;28;20216;-76
2021/03/12 02:32:05;;;;;;;17.50;4.10;;;7.10;99.90;;;;;;5029311;28;20232;-76
2021/03/12 02:34:50;;;;;;;10.80;3.70;;;7.00;99.90;;;;;;5037701;28;20196;-77
2021/03/12 02:37:36;;;;;;;9.10;3.03;;;7.00;99.90;;;;;;5028569;28;20677;-77
2021/03/12 02:40:22;;;;;;;8.33;3.07;;;7.00;99.90;;;;;;5007586;28;20237;-79
2021/03/12 02:43:08;;;;;;;8.50;3.23;;;7.00;99.90;;;;;;5015844;28;20219;-78
2021/03/12 02:45:55;;;;;;;15.07;3.77;;;7.00;99.90;;;;;;5013395;28;20694;-78
2021/03/12 02:48:40;;;;;;;10.27;3.70;;;7.10;99.90;;;;;;5014789;28;20271;-78
2021/03/12 02:51:26;;;;;;;12.37;3.70;;;7.10;99.90;;;;;;5001889;28;20256;-77
2021/03/12 02:54:12;;;;;;;14.97;4.10;;;7.10;99.90;;;;;;5015221;28;20207;-77
2021/03/12 02:56:58;;;;;;;12.57;4.03;;;7.10;99.90;;;;;;5013119;28;20725;-77
2021/03/12 02:59:47;;;;;;;12.03;3.87;;;7.10;99.90;;;;;;5002696;28;20211;-79
2021/03/12 03:02:33;;;;;;;15.03;4.20;;;7.10;99.90;;;;;;5010932;28;20200;-79
2021/03/12 03:05:18;;;;;;;12.50;4.47;;;7.10;99.90;;;;;;5015426;28;20633;-78
2021/03/12 03:08:05;;;;;;;11.67;3.63;;;7.10;99.90;;;;;;5009154;28;20330;-79
2021/03/12 03:10:52;;;;;;;14.23;4.40;;;7.10;99.90;;;;;;5004740;28;20292;-79
2021/03/12 03:13:40;;;;;;;13.27;3.87;;;7.10;99.90;;;;;;5007510;28;20208;-79
2021/03/12 03:16:29;;;;;;;12.93;3.47;;;7.10;99.90;;;;;;5008053;28;20312;-79
2021/03/12 03:19:15;;;;;;;14.90;3.70;;;7.10;99.90;;;;;;5008609;28;20624;-78
2021/03/12 03:22:02;;;;;;;8.87;3.70;;;7.10;99.90;;;;;;5014809;28;20720;-79
2021/03/12 03:24:48;;;;;;;16.53;3.80;;;7.10;99.90;;;;;;5031613;28;20252;-76
2021/03/12 03:27:32;;;;;;;11.03;3.33;;;7.10;99.90;;;;;;5022573;28;20268;-78
2021/03/12 03:30:17;;;;;;;14.03;3.73;;;7.10;99.90;;;;;;5012765;28;20208;-78
2021/03/12 03:33:02;;;;;;;12.63;4.17;;;7.10;99.90;;;;;;5012792;28;20244;-78
2021/03/12 03:35:48;;;;;;;4.70;2.30;;;7.10;99.90;;;;;;5002505;28;20305;-78
2021/03/12 03:38:33;;;;;;;12.83;3.60;;;7.10;99.90;;;;;;5004220;28;20268;-78
2021/03/12 03:41:20;;;;;;;15.53;3.93;;;7.10;99.90;;;;;;5013202;28;20335;-80
2021/03/12 03:44:05;;;;;;;14.63;3.80;;;7.10;99.90;;;;;;5007796;28;20216;-78
2021/03/12 03:46:52;;;;;;;14.87;3.87;;;7.10;99.90;;;;;;5012070;28;20654;-78
2021/03/12 03:49:41;;;;;;;16.60;3.77;;;7.00;99.90;;;;;;5011362;28;20211;-79
2021/03/12 03:52:27;;;;;;;11.20;3.47;;;7.00;99.90;;;;;;5010116;28;20232;-78
2021/03/12 03:55:13;;;;;;;8.50;2.80;;;7.00;99.90;;;;;;5011621;28;20763;-79
2021/03/12 03:57:59;;;;;;;12.50;4.00;;;6.90;99.90;;;;;;5013409;28;20235;-77
2021/03/12 04:00:44;;;;;;;11.90;2.93;;;6.90;99.90;;;;;;5003799;28;20200;-77
2021/03/12 04:03:30;;;;;;;9.13;3.40;;;6.90;99.90;;;;;;5012316;28;20592;-78
2021/03/12 04:06:15;;;;;;;8.27;3.43;;;6.80;99.90;;;;;;5021135;28;20709;-80
2021/03/12 04:09:01;;;;;;;15.73;3.93;;;6.70;99.90;;;;;;5016805;28;20298;-77
2021/03/12 04:11:48;;;;;;;10.83;3.27;;;6.60;99.90;;;;;;5007486;28;20247;-77
2021/03/12 04:14:33;;;;;;;8.67;3.07;;;6.50;99.90;;;;;;5019003;28;20727;-77
2021/03/12 04:17:19;;;;;;;17.70;4.90;;;6.50;99.90;;;;;;5019015;28;20632;-78
2021/03/12 04:20:06;;;;;;;13.47;3.20;;;6.40;99.90;;;;;;5009707;28;20209;-78
2021/03/12 04:22:51;;;;;;;8.17;3.13;;;6.30;99.90;;;;;;5004764;28;20219;-78
2021/03/12 04:25:37;;;;;;;12.60;3.33;;;6.30;99.90;;;;;;5014135;28;20222;-78
2021/03/12 04:28:22;;;;;;;12.70;3.40;;;6.20;99.90;;;;;;5016502;28;20223;-77
2021/03/12 04:31:07;;;;;;;11.97;2.97;;;6.20;99.90;;;;;;5015160;28;20581;-77
2021/03/12 04:33:52;;;;;;;8.93;3.30;;;6.10;99.90;;;;;;5014102;28;20284;-77
2021/03/12 04:36:39;;;;;;;9.97;3.93;;;6.00;99.90;;;;;;5010483;28;20382;-77
2021/03/12 04:39:24;;;;;;;16.10;3.87;;;6.00;99.90;;;;;;5012170;28;20622;-78
2021/03/12 04:42:12;;;;;;;11.00;3.70;;;6.00;99.90;;;;;;5006159;28;20216;-78
2021/03/12 04:44:57;;;;;;;11.93;3.57;;;5.90;99.90;;;;;;5007012;28;20260;-78
2021/03/12 04:47:43;;;;;;;12.70;3.53;;;5.90;99.90;;;;;;5007935;28;20290;-79
2021/03/12 04:50:29;;;;;;;14.03;3.70;;;5.80;99.90;;;;;;5013366;28;20573;-80
2021/03/12 04:53:14;;;;;;;11.60;3.83;;;5.70;99.90;;;;;;5007085;28;20539;-78
2021/03/12 04:56:00;;;;;;;11.17;3.47;;;5.70;99.90;;;;;;5013949;28;20582;-78
2021/03/12 04:58:46;;;;;;;12.57;3.40;;;5.70;99.90;;;;;;5012429;28;20209;-78
2021/03/12 05:01:33;;;;;;;14.57;3.23;;;5.60;99.90;;;;;;5010787;28;20312;-78
2021/03/12 05:04:19;;;;;;;6.80;2.93;;;5.60;99.90;;;;;;5012989;28;20207;-77
2021/03/12 05:07:04;;;;;;;11.67;3.40;;;5.50;99.90;;;;;;5013202;28;20263;-78
2021/03/12 05:09:49;;;;;;;14.23;3.17;;;5.50;99.90;;;;;;5005651;28;20243;-77
2021/03/12 05:12:34;;;;;;;12.13;4.20;;;5.50;99.90;;;;;;5006581;28;20299;-77
2021/03/12 05:15:20;;;;;;;15.03;3.97;;;5.50;99.90;;;;;;5011446;28;20251;-78
2021/03/12 05:18:05;;;;;;;13.77;3.40;;;5.40;99.90;;;;;;5011445;28;20255;-78
2021/03/12 05:20:51;;;;;;;16.43;4.00;;;5.40;99.90;;;;;;5010019;28;20204;-80
2021/03/12 05:23:35;;;;;;;10.67;3.97;;;5.40;99.90;;;;;;5005293;28;20208;-79
2021/03/12 05:26:20;;;;;;;13.47;5.07;;;5.30;99.90;;;;;;5001545;28;20771;-78
2021/03/12 05:29:05;;;;;;;11.60;3.43;;;5.30;99.90;;;;;;5011091;28;20258;-78
2021/03/12 05:31:51;;;;;;;14.63;3.90;;;5.30;99.90;;;;;;5004200;28;20774;-78
2021/03/12 05:34:36;;;;;;;15.83;4.90;;;5.30;99.90;;;;;;5011020;28;20704;-78
2021/03/12 05:37:20;;;;;;;11.37;3.33;;;5.20;99.90;;;;;;5012002;28;20224;-78
2021/03/12 05:40:06;;;;;;;19.00;4.97;;;5.20;99.90;;;;;;5008715;28;20250;-76
2021/03/12 05:42:53;;;;;;;16.63;4.30;;;5.20;99.90;;;;;;5010238;28;20215;-77
2021/03/12 05:45:38;;;;;;;12.67;4.30;;;5.20;99.90;;;;;;5003881;28;20224;-77
2021/03/12 05:48:24;;;;;;;16.03;4.10;;;5.10;99.90;;;;;;5010739;28;20618;-77
2021/03/12 05:51:10;;;;;;;14.67;3.83;;;5.10;99.90;;;;;;5014714;28;20878;-76
2021/03/12 05:53:55;;;;;;;16.23;4.63;;;5.10;99.90;;;;;;5013340;28;20300;-79
2021/03/12 05:56:40;;;;;;;12.23;3.93;;;5.10;99.90;;;;;;5010298;28;20331;-77
2021/03/12 05:59:25;;;;;;;13.00;3.80;;;5.10;99.90;;;;;;5007375;28;20207;-78
2021/03/12 06:02:09;;;;;;;11.77;3.80;;;5.10;99.90;;;;;;5008545;28;20267;-78
2021/03/12 06:04:55;;;;;;;12.17;4.93;;;5.10;99.90;;;;;;5011570;28;20213;-78
2021/03/12 06:07:40;;;;;;;14.60;4.60;;;5.00;99.90;;;;;;5014340;28;20244;-79
2021/03/12 06:10:24;;;;;;;13.57;4.40;;;5.00;99.90;;;;;;5018399;28;20249;-78
2021/03/12 06:13:09;;;;;;;10.53;4.03;;;5.00;99.90;;;;;;5025871;28;20208;-79
2021/03/12 06:15:54;;;;;;;12.93;4.53;;;5.00;99.90;;;;;;5017752;28;20235;-80
2021/03/12 06:18:39;;;;;;;15.77;3.57;;;5.00;99.90;;;;;;5013736;28;20218;-79
2021/03/12 06:21:30;;;;;;;14.53;3.93;;;5.00;99.90;;;;;;5011084;28;20205;-79
2021/03/12 06:24:26;;;;;;;5.27;2.20;;;5.10;99.90;;;;;;5013539;28;20207;-78
2021/03/12 06:27:23;;;;;;;18.97;4.60;;;5.00;99.90;;;;;;5014132;28;20332;-78
2021/03/12 06:30:10;;;;;;;13.87;4.07;;;5.10;99.90;;;;;;5011973;28;20255;-79
2021/03/12 06:32:55;;;;;;;8.17;2.67;;;5.10;99.90;;;;;;5014059;28;20228;-79
2021/03/12 06:35:40;;;;;;;13.50;3.40;;;5.10;99.90;;;;;;5015459;28;20263;-78
2021/03/12 06:38:26;;;;;;;10.50;3.63;;;5.10;99.90;;;;;;5003569;28;20215;-80
2021/03/12 06:41:37;;;;;;;12.87;3.60;;;5.10;99.90;;;;;;5013855;28;20203;-80
2021/03/12 06:44:27;;;;;;;19.67;4.03;;;5.10;99.90;;;;;;5017434;28;20278;-80
2021/03/12 06:47:12;;;;;;;12.63;3.50;;;5.10;99.90;;;;;;4999478;28;20233;-79
2021/03/12 06:49:59;;;;;;;16.07;4.30;;;5.10;99.90;;;;;;5013496;28;20201;-79
2021/03/12 06:52:44;;;;;;;9.13;2.70;;;5.20;99.90;;;;;;5016928;28;20231;-78
2021/03/12 06:55:42;;;;;;;19.00;3.87;;;5.10;99.90;;;;;;5005236;28;20219;-81
2021/03/12 06:58:28;;;;;;;7.93;2.73;;;5.20;99.90;;;;;;5014326;28;20302;-81
2021/03/12 07:01:20;;;;;;;13.57;4.23;;;5.20;99.90;;;;;;5011042;28;20219;-80
2021/03/12 07:04:10;;;;;;;12.63;3.10;;;5.20;99.90;;;;;;5015176;28;20275;-79
2021/03/12 07:06:55;;;;;;;14.63;3.83;;;5.20;99.90;;;;;;5015004;28;20219;-80
2021/03/12 07:09:57;;;;;;;14.13;2.83;;;5.20;99.90;;;;;;5012705;28;20663;-79
2021/03/12 07:12:47;;;;;;;13.37;2.67;;;5.20;99.90;;;;;;5014074;28;20219;-77
2021/03/12 07:15:32;;;;;;;15.90;4.03;;;5.20;99.90;;;;;;5017381;28;20272;-78
2021/03/12 07:18:20;;;;;;;11.20;3.10;;;5.30;99.90;;;;;;5016337;28;20715;-78
2021/03/12 07:21:07;;;;;;;12.20;3.40;;;5.30;99.90;;;;;;5014313;28;20207;-81
2021/03/12 07:23:56;;;;;;;17.03;4.77;;;5.30;99.90;;;;;;5016246;28;20292;-79
2021/03/12 07:26:44;;;;;;;14.80;3.20;;;5.30;99.90;;;;;;5006420;28;20255;-80
2021/03/12 07:29:32;;;;;;;15.70;4.10;;;5.40;99.90;;;;;;5015286;28;20771;-79
2021/03/12 07:32:23;;;;;;;12.63;3.00;;;5.40;99.90;;;;;;5015376;28;20604;-79
2021/03/12 07:35:09;;;;;;;22.20;3.80;;;5.50;99.90;;;;;;5005424;28;20255;-79
2021/03/12 07:37:55;;;;;;;12.70;3.40;;;5.60;99.90;;;;;;5016200;28;20244;-79
2021/03/12 07:40:41;;;;;;;15.27;3.40;;;5.60;99.90;;;;;;5012503;28;20207;-79
2021/03/12 07:43:27;;;;;;;14.57;2.93;;;5.70;99.90;;;;;;5016056;28;20359;-80
2021/03/12 07:46:16;;;;;;;21.93;4.27;;;5.80;99.90;;;;;;5016192;28;20205;-78
2021/03/12 07:49:38;;;;;;;13.83;3.73;;;5.90;99.90;;;;;;5018216;28;20196;-79
2021/03/12 07:52:48;;;;;;;12.33;3.00;;;6.00;99.90;;;;;;5010420;28;20256;-78
2021/03/12 07:55:53;;;;;;;15.90;3.40;;;6.00;99.90;;;;;;5018428;28;20200;-79
2021/03/12 07:58:49;;;;;;;14.17;2.70;;;6.10;99.90;;;;;;5014756;28;20232;-80
2021/03/12 08:01:50;;;;;;;17.63;3.87;;;6.20;99.90;;;;;;5008441;28;20320;-80
2021/03/12 08:04:35;;;;;;;16.60;3.87;;;6.30;99.90;;;;;;5016699;28;20269;-80
2021/03/12 08:07:33;;;;;;;16.17;3.43;;;6.30;99.90;;;;;;5017795;28;20220;-79
2021/03/12 08:10:19;;;;;;;16.67;3.87;;;6.40;99.90;;;;;;5012487;28;20251;-78
2021/03/12 08:13:29;;;;;;;19.47;4.07;;;6.50;99.90;;;;;;5020705;28;20216;-78
2021/03/12 08:16:14;;;;;;;16.33;3.87;;;6.50;99.90;;;;;;5010486;28;20339;-79
2021/03/12 08:19:28;;;;;;;17.40;3.50;;;6.60;99.90;;;;;;5004175;28;20208;-79
2021/03/12 08:22:44;;;;;;;17.87;4.23;;;6.70;99.90;;;;;;5013195;28;20259;-80
2021/03/12 08:25:44;;;;;;;16.30;4.03;;;6.70;99.90;;;;;;5021020;28;20238;-79
2021/03/12 08:28:34;;;;;;;17.20;4.37;;;6.80;99.90;;;;;;5024707;28;20216;-79
2021/03/12 08:31:41;;;;;;;15.33;3.83;;;6.90;99.90;;;;;;5019544;28;20301;-80
2021/03/12 08:34:38;;;;;;;19.40;5.07;;;7.00;99.90;;;;;;5014941;28;20236;-79
2021/03/12 08:37:41;;;;;;;21.30;3.63;;;7.10;99.90;;;;;;5016020;28;20313;-79
2021/03/12 08:40:27;;;;;;;11.13;3.50;;;7.20;99.90;;;;;;5009782;28;20692;-79
2021/03/12 08:43:14;;;;;;;17.33;4.30;;;7.30;99.90;;;;;;5011075;28;20216;-78
2021/03/12 08:46:00;;;;;;;16.97;4.83;;;7.40;99.90;;;;;;5018547;28;20200;-80
2021/03/12 08:48:48;;;;;;;12.40;4.23;;;7.50;99.90;;;;;;5008236;28;20633;-80
2021/03/12 08:51:34;;;;;;;20.57;4.90;;;7.60;99.90;;;;;;5018969;28;20314;-81
2021/03/12 08:54:28;;;;;;;10.63;2.90;;;7.70;99.90;;;;;;5023878;28;20207;-77
2021/03/12 08:57:20;;;;;;;19.77;4.43;;;7.80;99.90;;;;;;5024073;28;20240;-77
2021/03/12 09:00:07;;;;;;;20.50;5.60;;;7.90;99.90;;;;;;5018697;28;20260;-81
2021/03/12 09:02:52;;;;;;;14.33;5.00;;;7.90;99.90;;;;;;5018815;28;20234;-79
2021/03/12 09:05:37;;;;;;;20.50;3.97;;;8.10;99.90;;;;;;5015976;28;20207;-80
2021/03/12 09:08:24;;;;;;;26.03;6.27;;;8.30;99.90;;;;;;5016840;28;20236;-80
2021/03/12 09:11:11;;;;;;;18.03;4.53;;;8.40;99.90;;;;;;5003044;28;20853;-79
2021/03/12 09:13:59;;;;;;;22.00;4.70;;;8.60;99.90;;;;;;5016603;28;20208;-80
2021/03/12 09:16:45;;;;;;;17.40;3.90;;;8.70;99.90;;;;;;5017424;28;20648;-78
2021/03/12 09:19:30;;;;;;;17.57;4.50;;;8.80;99.90;;;;;;5002364;28;20208;-79
2021/03/12 09:22:22;;;;;;;19.23;4.90;;;8.90;99.90;;;;;;5012343;28;20243;-80
2021/03/12 09:25:08;;;;;;;17.77;5.37;;;9.10;99.90;;;;;;5018106;28;20211;-80
2021/03/12 09:28:06;;;;;;;17.27;4.67;;;9.20;99.90;;;;;;5015762;28;20231;-80
2021/03/12 09:30:53;;;;;;;16.43;4.37;;;9.30;99.90;;;;;;5016491;28;20200;-78
2021/03/12 09:33:40;;;;;;;14.63;4.43;;;9.50;99.90;;;;;;5031830;28;20197;-77
2021/03/12 09:36:28;;;;;;;17.50;5.33;;;9.70;99.90;;;;;;5032301;28;20216;-78
2021/03/12 09:39:18;;;;;;;10.53;4.23;;;9.90;99.90;;;;;;5028209;28;20213;-78
2021/03/12 09:42:07;;;;;;;17.17;4.70;;;10.10;99.90;;;;;;5034948;28;20231;-78
2021/03/12 09:44:52;;;;;;;18.47;4.63;;;10.30;99.90;;;;;;5025846;28;20232;-80
2021/03/12 09:47:37;;;;;;;22.10;4.77;;;10.60;99.90;;;;;;5025898;28;20348;-80
2021/03/12 09:50:25;;;;;;;18.17;4.67;;;10.80;99.90;;;;;;5009705;28;20668;-80
2021/03/12 09:53:11;;;;;;;11.17;4.67;;;10.90;99.90;;;;;;5019219;28;20235;-79
2021/03/12 09:55:56;;;;;;;19.20;4.70;;;11.10;99.90;;;;;;5010493;28;20215;-79
2021/03/12 09:58:42;;;;;;;15.33;4.80;;;11.20;99.90;;;;;;5015771;28;20203;-80
2021/03/12 10:01:34;;;;;;;15.47;5.03;;;11.30;99.90;;;;;;5009424;28;20285;-79
2021/03/12 10:04:24;;;;;;;16.20;5.57;;;11.30;99.90;;;;;;5016468;28;20255;-79
2021/03/12 10:07:11;;;;;;;16.17;4.53;;;11.30;99.90;;;;;;5024760;28;23046;-79
2021/03/12 10:09:56;;;;;;;15.70;5.97;;;11.20;99.90;;;;;;5016050;28;20208;-78
2021/03/12 10:12:42;;;;;;;17.97;5.03;;;11.30;99.90;;;;;;5013694;28;20255;-78
2021/03/12 10:15:30;;;;;;;19.10;4.63;;;11.30;99.90;;;;;;5017329;28;20263;-78
2021/03/12 10:18:17;;;;;;;22.43;6.23;;;11.30;99.90;;;;;;5024423;28;20232;-81
2021/03/12 10:21:08;;;;;;;15.27;4.20;;;11.50;99.90;;;;;;5025709;28;20601;-77
2021/03/12 10:23:53;;;;;;;15.47;4.13;;;11.50;99.90;;;;;;5027316;28;20239;-79
2021/03/12 10:26:42;;;;;;;11.00;4.23;;;11.50;99.90;;;;;;5029931;28;20751;-78
2021/03/12 10:29:27;;;;;;;15.67;5.00;;;11.50;99.90;;;;;;5027955;28;20208;-79
2021/03/12 10:32:15;;;;;;;16.17;3.93;;;11.40;99.90;;;;;;5027922;28;20235;-79
2021/03/12 10:35:00;;;;;;;17.97;4.83;;;11.30;99.90;;;;;;5018927;28;20207;-79
2021/03/12 10:37:46;;;;;;;21.47;4.47;;;11.10;99.90;;;;;;5015499;28;20338;-78
2021/03/12 10:40:36;;;;;;;14.60;4.10;;;11.00;99.90;;;;;;5027919;28;20216;-78
2021/03/12 10:43:22;;;;;;;15.40;4.90;;;10.90;99.90;;;;;;5020800;28;20212;-80
2021/03/12 10:46:08;;;;;;;13.43;4.47;;;10.70;99.90;;;;;;5014217;28;20208;-80
2021/03/12 10:48:54;;;;;;;14.23;4.97;;;10.50;99.90;;;;;;5018416;28;20289;-81
2021/03/12 10:51:40;;;;;;;15.90;4.70;;;10.40;99.90;;;;;;5018027;28;20300;-81
2021/03/12 10:54:29;;;;;;;17.30;4.13;;;10.20;99.90;;;;;;5022507;28;20219;-80
2021/03/12 10:57:14;;;;;;;14.37;4.70;;;10.10;99.90;;;;;;5008649;28;20305;-80
2021/03/12 10:59:59;;;;;;;15.27;4.97;;;9.80;99.90;;;;;;5013753;28;20239;-79
2021/03/12 11:02:44;;;;;;;16.43;4.77;;;9.70;99.90;;;;;;5013173;28;20284;-80
2021/03/12 11:05:31;;;;;;;17.90;4.83;;;9.50;99.90;;;;;;5016157;28;20736;-79
2021/03/12 11:08:16;;;;;;;14.67;4.57;;;9.30;99.90;;;;;;5010670;28;20223;-80
2021/03/12 11:11:05;;;;;;;16.03;4.87;;;9.20;99.90;;;;;;5005842;28;20247;-80
2021/03/12 11:13:51;;;;;;;15.00;5.00;;;9.10;99.90;;;;;;5016945;28;20200;-80
2021/03/12 11:16:36;;;;;;;19.23;5.40;;;8.90;99.90;;;;;;5017633;28;20646;-78
2021/03/12 11:19:22;;;;;;;24.67;6.27;;;8.80;99.90;;;;;;5015114;28;20259;-81
2021/03/12 11:22:08;;;;;;;16.60;4.60;;;8.80;99.90;;;;;;5017177;28;20567;-79
2021/03/12 11:24:53;;;;;;;24.67;6.00;;;8.70;99.90;;;;;;5018773;28;20265;-80
2021/03/12 11:27:37;;;;;;;21.07;5.90;;;8.60;99.90;;;;;;5016739;28;20271;-80
2021/03/12 11:30:24;;;;;;;21.43;6.33;;;8.60;99.90;;;;;;5017067;28;20277;-79
2021/03/12 11:33:09;;;;;;;23.47;5.63;;;8.50;99.90;;;;;;5017459;28;20216;-79
2021/03/12 11:35:54;;;;;;;19.80;6.37;;;8.50;99.90;;;;;;5017047;28;20216;-79
2021/03/12 11:38:41;;;;;;;19.47;6.37;;;8.50;99.90;;;;;;5036546;28;20199;-78
2021/03/12 11:41:26;;;;;;;22.90;5.90;;;8.50;99.90;;;;;;5022773;28;20737;-78
2021/03/12 11:44:10;;;;;;;18.27;5.50;;;8.60;99.90;;;;;;5010280;28;20292;-80
2021/03/12 11:46:55;;;;;;;20.17;6.83;;;8.60;99.90;;;;;;5010703;28;20235;-80
2021/03/12 11:49:44;;;;;;;15.30;5.70;;;8.70;99.90;;;;;;5015365;28;20240;-79
2021/03/12 11:52:29;;;;;;;20.33;5.10;;;8.80;99.90;;;;;;5015252;28;20720;-79
2021/03/12 11:55:15;;;;;;;9.97;4.27;;;9.00;99.90;;;;;;5013620;28;20208;-78
2021/03/12 11:58:00;;;;;;;14.77;3.80;;;9.10;99.90;;;;;;5015318;28;20658;-79
2021/03/12 12:00:46;;;;;;;17.50;3.77;;;9.30;99.90;;;;;;5005988;28;20231;-80
2021/03/12 12:03:31;;;;;;;16.03;4.93;;;9.40;99.90;;;;;;5013114;28;20664;-80
2021/03/12 12:06:15;;;;;;;14.83;4.40;;;9.50;99.90;;;;;;5015721;28;20196;-79
2021/03/12 12:09:00;;;;;;;14.37;4.17;;;9.60;99.90;;;;;;5015108;28;20703;-80
2021/03/12 12:11:46;;;;;;;13.43;4.37;;;9.80;99.90;;;;;;5010479;28;20592;-80
2021/03/12 12:14:31;;;;;;;12.57;3.33;;;10.00;99.90;;;;;;5014920;28;20215;-81
2021/03/12 12:17:16;;;;;;;16.30;4.13;;;10.10;99.90;;;;;;5016610;28;20282;-80
2021/03/12 12:20:01;;;;;;;13.23;4.33;;;10.20;99.90;;;;;;5009375;28;20212;-79
2021/03/12 12:22:46;;;;;;;13.23;4.20;;;10.30;99.90;;;;;;5019029;28;20215;-79
2021/03/12 12:25:30;;;;;;;11.27;3.97;;;10.40;99.90;;;;;;5015393;28;20275;-79
2021/03/12 12:28:16;;;;;;;13.20;3.70;;;10.40;99.90;;;;;;5009207;28;20256;-79
2021/03/12 12:31:01;;;;;;;8.23;3.30;;;10.50;99.90;;;;;;5013410;28;20208;-79
2021/03/12 12:33:46;;;;;;;11.77;4.37;;;10.60;99.90;;;;;;5015659;28;20225;-80
2021/03/12 12:36:32;;;;;;;14.47;3.70;;;10.60;99.90;;;;;;5002758;28;20287;-80
2021/03/12 12:39:18;;;;;;;12.20;3.37;;;10.60;99.90;;;;;;5011200;28;20208;-80
2021/03/12 12:42:03;;;;;;;11.60;4.30;;;10.60;99.90;;;;;;5014698;28;20563;-79
2021/03/12 12:44:49;;;;;;;12.13;3.73;;;10.60;99.90;;;;;;5008539;28;20239;-80
2021/03/12 12:47:34;;;;;;;8.10;3.57;;;10.60;99.90;;;;;;5015173;28;20289;-80
2021/03/12 12:50:18;;;;;;;9.10;2.83;;;10.60;99.90;;;;;;5014701;28;20259;-79
2021/03/12 12:53:04;;;;;;;12.37;3.83;;;10.50;99.90;;;;;;5018580;28;20240;-80
2021/03/12 12:55:48;;;;;;;12.40;4.27;;;10.50;99.90;;;;;;5015006;28;20212;-79
2021/03/12 12:58:33;;;;;;;7.47;3.50;;;10.40;99.90;;;;;;5014132;28;20259;-80
2021/03/12 13:01:19;;;;;;;12.63;3.27;;;10.30;99.90;;;;;;5007411;28;20207;-79
2021/03/12 13:04:04;;;;;;;12.43;3.80;;;10.30;99.90;;;;;;5011513;28;20255;-80
2021/03/12 13:06:49;;;;;;;10.87;3.47;;;10.20;99.90;;;;;;5018783;28;20724;-80
2021/03/12 13:09:33;;;;;;;9.93;3.10;;;10.20;99.90;;;;;;5005914;28;20224;-80
2021/03/12 13:12:18;;;;;;;7.53;2.57;;;10.30;99.90;;;;;;5014366;28;20280;-79
2021/03/12 13:15:04;;;;;;;9.63;3.50;;;10.30;99.90;;;;;;5018948;28;20211;-79
2021/03/12 13:17:50;;;;;;;12.10;3.83;;;10.30;99.90;;;;;;5011151;28;20231;-80
2021/03/12 13:20:41;;;;;;;13.30;3.97;;;10.40;99.90;;;;;;5019001;28;20333;-80
2021/03/12 13:23:28;;;;;;;16.03;3.00;;;10.40;99.90;;;;;;5019263;28;20215;-80
2021/03/12 13:26:12;;;;;;;13.60;3.60;;;10.40;99.90;;;;;;5017792;28;20211;-79
2021/03/12 13:28:57;;;;;;;8.57;3.57;;;10.50;99.90;;;;;;5020059;28;20200;-80
2021/03/12 13:31:42;;;;;;;10.10;3.13;;;10.50;99.90;;;;;;5019414;28;20310;-80
2021/03/12 13:34:28;;;;;;;9.03;3.27;;;10.60;99.90;;;;;;5020481;28;20207;-80
2021/03/12 13:37:12;;;;;;;17.27;3.10;;;10.60;99.90;;;;;;5017719;28;20255;-79
2021/03/12 13:39:57;;;;;;;13.03;3.87;;;10.60;99.90;;;;;;5026651;28;20230;-79
2021/03/12 13:42:43;;;;;;;16.27;3.73;;;10.60;99.90;;;;;;5003405;28;596531;-79
2021/03/12 13:45:28;;;;;;;13.07;3.70;;;10.60;99.90;;;;;;5029503;28;20204;-80
2021/03/12 13:48:13;;;;;;;14.53;3.90;;;10.60;99.90;;;;;;5030625;28;20259;-81
2021/03/12 13:50:58;;;;;;;8.77;3.23;;;10.60;99.90;;;;;;5028420;28;20196;-80
2021/03/12 13:53:43;;;;;;;11.97;3.80;;;10.40;99.90;;;;;;5024165;28;20220;-81
2021/03/12 13:56:28;;;;;;;11.07;4.60;;;10.30;99.90;;;;;;5022289;28;20227;-80
2021/03/12 13:59:12;;;;;;;12.27;4.27;;;10.10;99.90;;;;;;5020601;28;20224;-80
2021/03/12 14:01:57;;;;;;;8.37;3.27;;;9.90;99.90;;;;;;5024303;28;20212;-79
2021/03/12 14:04:42;;;;;;;9.57;3.43;;;9.80;99.90;;;;;;5029641;28;20269;-79
2021/03/12 14:07:28;;;;;;;12.30;3.90;;;9.60;99.90;;;;;;5027607;28;20247;-79
2021/03/12 14:10:13;;;;;;;10.27;4.10;;;9.50;99.90;;;;;;5027239;28;20219;-80
2021/03/12 14:12:58;;;;;;;14.63;3.83;;;9.40;99.90;;;;;;5015796;28;20216;-80
2021/03/12 14:15:43;;;;;;;10.93;3.30;;;9.20;99.90;;;;;;5021778;28;20240;-79
2021/03/12 14:18:27;;;;;;;10.83;3.10;;;9.10;99.90;;;;;;5031448;28;20191;-79
2021/03/12 14:21:12;;;;;;;13.50;4.20;;;9.00;99.90;;;;;;5034936;28;20216;-78
2021/03/12 14:23:58;;;;;;;12.67;3.23;;;8.90;99.90;;;;;;5025783;28;20200;-80
2021/03/12 14:26:46;;;;;;;15.20;3.80;;;8.90;99.90;;;;;;5016502;28;20228;-80
2021/03/12 14:29:31;;;;;;;8.90;3.47;;;8.80;99.90;;;;;;5019828;28;20215;-80